sensor_id;sensor_type;location;lat;lon;timestamp;P1;durP1;ratioP1;P2;durP2;ratioP2
85701;SDS011;76139;50.888;3.882;2024-02-21T00:02:09;18.92;;;8.48;;
85701;SDS011;76139;50.888;3.882;2024-02-21T00:04:35;18.20;;;7.38;;
85701;SDS011;76139;50.888;3.882;2024-02-21T00:07:01;16.90;;;7.78;;
85701;SDS011;76139;50.888;3.882;2024-02-21T00:09:27;13.65;;;6.68;;
85701;SDS011;76139;50.888;3.882;2024-02-21T00:11:53;16.85;;;7.22;;
85701;SDS011;76139;50.888;3.882;2024-02-21T00:14:18;19.08;;;7.80;;
85701;SDS011;76139;50.888;3.882;2024-02-21T00:16:44;20.95;;;7.10;;
85701;SDS011;76139;50.888;3.882;2024-02-21T00:19:10;19.55;;;7.50;;
85701;SDS011;76139;50.888;3.882;2024-02-21T00:21:36;22.48;;;6.93;;
85701;SDS011;76139;50.888;3.882;2024-02-21T00:24:02;15.65;;;6.72;;
85701;SDS011;76139;50.888;3.882;2024-02-21T00:26:27;17.20;;;6.90;;
85701;SDS011;76139;50.888;3.882;2024-02-21T00:28:53;18.92;;;7.40;;
85701;SDS011;76139;50.888;3.882;2024-02-21T00:31:18;18.20;;;7.30;;
85701;SDS011;76139;50.888;3.882;2024-02-21T00:33:44;23.25;;;8.60;;
85701;SDS011;76139;50.888;3.882;2024-02-21T00:36:10;19.48;;;7.85;;
85701;SDS011;76139;50.888;3.882;2024-02-21T00:38:35;22.13;;;8.30;;
85701;SDS011;76139;50.888;3.882;2024-02-21T00:41:01;22.35;;;7.70;;
85701;SDS011;76139;50.888;3.882;2024-02-21T00:43:27;23.08;;;7.15;;
85701;SDS011;76139;50.888;3.882;2024-02-21T00:45:52;15.77;;;6.45;;
85701;SDS011;76139;50.888;3.882;2024-02-21T00:48:18;19.80;;;6.85;;
85701;SDS011;76139;50.888;3.882;2024-02-21T00:50:44;16.75;;;7.00;;
85701;SDS011;76139;50.888;3.882;2024-02-21T00:53:09;16.70;;;7.07;;
85701;SDS011;76139;50.888;3.882;2024-02-21T00:55:35;22.08;;;7.10;;
85701;SDS011;76139;50.888;3.882;2024-02-21T00:58:01;18.25;;;8.40;;
85701;SDS011;76139;50.888;3.882;2024-02-21T01:00:26;14.65;;;5.97;;
85701;SDS011;76139;50.888;3.882;2024-02-21T01:02:52;17.50;;;6.22;;
85701;SDS011;76139;50.888;3.882;2024-02-21T01:05:18;19.35;;;7.28;;
85701;SDS011;76139;50.888;3.882;2024-02-21T01:07:45;16.00;;;6.90;;
85701;SDS011;76139;50.888;3.882;2024-02-21T01:10:11;18.42;;;7.00;;
85701;SDS011;76139;50.888;3.882;2024-02-21T01:12:36;19.85;;;6.82;;
85701;SDS011;76139;50.888;3.882;2024-02-21T01:15:02;14.52;;;6.90;;
85701;SDS011;76139;50.888;3.882;2024-02-21T01:17:29;13.85;;;6.32;;
85701;SDS011;76139;50.888;3.882;2024-02-21T01:19:55;16.88;;;7.70;;
85701;SDS011;76139;50.888;3.882;2024-02-21T01:22:21;15.18;;;6.80;;
85701;SDS011;76139;50.888;3.882;2024-02-21T01:24:46;21.15;;;7.15;;
85701;SDS011;76139;50.888;3.882;2024-02-21T01:27:12;18.70;;;7.28;;
85701;SDS011;76139;50.888;3.882;2024-02-21T01:29:38;15.02;;;6.35;;
85701;SDS011;76139;50.888;3.882;2024-02-21T01:32:03;12.60;;;5.63;;
85701;SDS011;76139;50.888;3.882;2024-02-21T01:34:29;18.02;;;6.82;;
85701;SDS011;76139;50.888;3.882;2024-02-21T01:36:55;15.75;;;8.13;;
85701;SDS011;76139;50.888;3.882;2024-02-21T01:39:21;18.42;;;7.88;;
85701;SDS011;76139;50.888;3.882;2024-02-21T01:41:46;18.65;;;7.60;;
85701;SDS011;76139;50.888;3.882;2024-02-21T01:44:12;17.45;;;8.32;;
85701;SDS011;76139;50.888;3.882;2024-02-21T01:46:38;17.85;;;7.95;;
85701;SDS011;76139;50.888;3.882;2024-02-21T01:49:04;18.42;;;8.65;;
85701;SDS011;76139;50.888;3.882;2024-02-21T01:51:31;16.85;;;7.20;;
85701;SDS011;76139;50.888;3.882;2024-02-21T01:53:56;18.27;;;8.25;;
85701;SDS011;76139;50.888;3.882;2024-02-21T01:56:23;17.88;;;8.50;;
85701;SDS011;76139;50.888;3.882;2024-02-21T01:58:49;16.55;;;8.13;;
85701;SDS011;76139;50.888;3.882;2024-02-21T02:01:16;23.50;;;7.05;;
85701;SDS011;76139;50.888;3.882;2024-02-21T02:03:42;22.48;;;8.98;;
85701;SDS011;76139;50.888;3.882;2024-02-21T02:06:10;16.13;;;6.93;;
85701;SDS011;76139;50.888;3.882;2024-02-21T02:08:36;19.80;;;8.43;;
85701;SDS011;76139;50.888;3.882;2024-02-21T02:11:02;24.75;;;10.45;;
85701;SDS011;76139;50.888;3.882;2024-02-21T02:13:28;19.52;;;8.68;;
85701;SDS011;76139;50.888;3.882;2024-02-21T02:15:54;16.58;;;7.90;;
85701;SDS011;76139;50.888;3.882;2024-02-21T02:18:20;18.85;;;8.60;;
85701;SDS011;76139;50.888;3.882;2024-02-21T02:20:46;20.77;;;8.20;;
85701;SDS011;76139;50.888;3.882;2024-02-21T02:23:31;20.65;;;8.93;;
85701;SDS011;76139;50.888;3.882;2024-02-21T02:25:57;21.40;;;9.05;;
85701;SDS011;76139;50.888;3.882;2024-02-21T02:28:23;18.05;;;8.43;;
85701;SDS011;76139;50.888;3.882;2024-02-21T02:30:49;20.38;;;8.55;;
85701;SDS011;76139;50.888;3.882;2024-02-21T02:33:15;17.88;;;7.35;;
85701;SDS011;76139;50.888;3.882;2024-02-21T02:35:42;18.05;;;8.23;;
85701;SDS011;76139;50.888;3.882;2024-02-21T02:38:08;17.88;;;7.43;;
85701;SDS011;76139;50.888;3.882;2024-02-21T02:40:37;20.25;;;8.88;;
85701;SDS011;76139;50.888;3.882;2024-02-21T02:43:04;23.65;;;9.93;;
85701;SDS011;76139;50.888;3.882;2024-02-21T02:45:30;20.85;;;8.52;;
85701;SDS011;76139;50.888;3.882;2024-02-21T02:47:56;18.80;;;8.45;;
85701;SDS011;76139;50.888;3.882;2024-02-21T02:50:22;19.83;;;8.30;;
85701;SDS011;76139;50.888;3.882;2024-02-21T02:52:49;19.00;;;8.57;;
85701;SDS011;76139;50.888;3.882;2024-02-21T02:55:14;26.02;;;9.98;;
85701;SDS011;76139;50.888;3.882;2024-02-21T02:57:41;19.23;;;7.78;;
85701;SDS011;76139;50.888;3.882;2024-02-21T03:00:07;15.18;;;6.90;;
85701;SDS011;76139;50.888;3.882;2024-02-21T03:02:34;14.18;;;6.53;;
85701;SDS011;76139;50.888;3.882;2024-02-21T03:05:00;14.27;;;7.50;;
85701;SDS011;76139;50.888;3.882;2024-02-21T03:07:36;18.80;;;8.15;;
85701;SDS011;76139;50.888;3.882;2024-02-21T03:10:01;17.20;;;7.78;;
85701;SDS011;76139;50.888;3.882;2024-02-21T03:12:27;17.70;;;7.03;;
85701;SDS011;76139;50.888;3.882;2024-02-21T03:14:54;13.52;;;6.88;;
85701;SDS011;76139;50.888;3.882;2024-02-21T03:17:19;16.08;;;6.90;;
85701;SDS011;76139;50.888;3.882;2024-02-21T03:19:46;18.67;;;7.47;;
85701;SDS011;76139;50.888;3.882;2024-02-21T03:22:11;17.23;;;7.30;;
85701;SDS011;76139;50.888;3.882;2024-02-21T03:24:37;16.70;;;6.68;;
85701;SDS011;76139;50.888;3.882;2024-02-21T03:27:03;18.98;;;7.80;;
85701;SDS011;76139;50.888;3.882;2024-02-21T03:29:28;15.25;;;6.60;;
85701;SDS011;76139;50.888;3.882;2024-02-21T03:31:54;14.25;;;7.10;;
85701;SDS011;76139;50.888;3.882;2024-02-21T03:34:20;12.43;;;5.80;;
85701;SDS011;76139;50.888;3.882;2024-02-21T03:36:46;16.50;;;8.25;;
85701;SDS011;76139;50.888;3.882;2024-02-21T03:39:11;13.90;;;6.65;;
85701;SDS011;76139;50.888;3.882;2024-02-21T03:41:37;25.10;;;8.68;;
85701;SDS011;76139;50.888;3.882;2024-02-21T03:44:03;22.92;;;9.50;;
85701;SDS011;76139;50.888;3.882;2024-02-21T03:46:30;19.23;;;9.85;;
85701;SDS011;76139;50.888;3.882;2024-02-21T03:48:56;22.27;;;9.57;;
85701;SDS011;76139;50.888;3.882;2024-02-21T03:51:22;18.35;;;9.15;;
85701;SDS011;76139;50.888;3.882;2024-02-21T03:53:48;21.58;;;9.90;;
85701;SDS011;76139;50.888;3.882;2024-02-21T03:56:14;15.77;;;7.50;;
85701;SDS011;76139;50.888;3.882;2024-02-21T03:58:39;19.95;;;10.55;;
85701;SDS011;76139;50.888;3.882;2024-02-21T04:01:05;18.33;;;8.77;;
85701;SDS011;76139;50.888;3.882;2024-02-21T04:03:31;16.55;;;8.13;;
85701;SDS011;76139;50.888;3.882;2024-02-21T04:05:56;18.92;;;8.05;;
85701;SDS011;76139;50.888;3.882;2024-02-21T04:08:22;19.70;;;9.00;;
85701;SDS011;76139;50.888;3.882;2024-02-21T04:10:48;15.75;;;8.25;;
85701;SDS011;76139;50.888;3.882;2024-02-21T04:13:14;11.10;;;6.00;;
85701;SDS011;76139;50.888;3.882;2024-02-21T04:15:40;17.25;;;7.50;;
85701;SDS011;76139;50.888;3.882;2024-02-21T04:18:06;21.85;;;9.70;;
85701;SDS011;76139;50.888;3.882;2024-02-21T04:20:31;15.43;;;7.53;;
85701;SDS011;76139;50.888;3.882;2024-02-21T04:22:57;18.38;;;9.32;;
85701;SDS011;76139;50.888;3.882;2024-02-21T04:25:23;16.27;;;8.02;;
85701;SDS011;76139;50.888;3.882;2024-02-21T04:27:49;21.00;;;7.93;;
85701;SDS011;76139;50.888;3.882;2024-02-21T04:30:14;19.90;;;9.73;;
85701;SDS011;76139;50.888;3.882;2024-02-21T04:32:41;17.73;;;9.77;;
85701;SDS011;76139;50.888;3.882;2024-02-21T04:35:07;18.58;;;8.85;;
85701;SDS011;76139;50.888;3.882;2024-02-21T04:37:33;17.15;;;8.75;;
85701;SDS011;76139;50.888;3.882;2024-02-21T04:39:59;21.58;;;9.18;;
85701;SDS011;76139;50.888;3.882;2024-02-21T04:42:24;21.42;;;9.77;;
85701;SDS011;76139;50.888;3.882;2024-02-21T04:44:50;19.30;;;9.10;;
85701;SDS011;76139;50.888;3.882;2024-02-21T04:47:15;18.50;;;8.45;;
85701;SDS011;76139;50.888;3.882;2024-02-21T04:49:41;16.90;;;8.32;;
85701;SDS011;76139;50.888;3.882;2024-02-21T04:52:07;16.90;;;6.72;;
85701;SDS011;76139;50.888;3.882;2024-02-21T04:54:32;18.95;;;8.60;;
85701;SDS011;76139;50.888;3.882;2024-02-21T04:57:00;19.73;;;8.32;;
85701;SDS011;76139;50.888;3.882;2024-02-21T04:59:26;19.25;;;9.27;;
85701;SDS011;76139;50.888;3.882;2024-02-21T05:01:51;18.27;;;7.35;;
85701;SDS011;76139;50.888;3.882;2024-02-21T05:04:17;17.05;;;9.57;;
85701;SDS011;76139;50.888;3.882;2024-02-21T05:06:43;15.45;;;7.80;;
85701;SDS011;76139;50.888;3.882;2024-02-21T05:09:09;19.10;;;9.23;;
85701;SDS011;76139;50.888;3.882;2024-02-21T05:11:35;18.55;;;9.13;;
85701;SDS011;76139;50.888;3.882;2024-02-21T05:14:01;18.48;;;9.07;;
85701;SDS011;76139;50.888;3.882;2024-02-21T05:16:27;14.15;;;8.15;;
85701;SDS011;76139;50.888;3.882;2024-02-21T05:18:53;19.52;;;9.77;;
85701;SDS011;76139;50.888;3.882;2024-02-21T05:21:19;18.60;;;9.27;;
85701;SDS011;76139;50.888;3.882;2024-02-21T05:23:45;20.30;;;8.52;;
85701;SDS011;76139;50.888;3.882;2024-02-21T05:26:10;16.60;;;8.00;;
85701;SDS011;76139;50.888;3.882;2024-02-21T05:28:36;20.90;;;9.93;;
85701;SDS011;76139;50.888;3.882;2024-02-21T05:31:02;19.05;;;9.13;;
85701;SDS011;76139;50.888;3.882;2024-02-21T05:33:27;26.75;;;9.27;;
85701;SDS011;76139;50.888;3.882;2024-02-21T05:35:53;16.05;;;9.05;;
85701;SDS011;76139;50.888;3.882;2024-02-21T05:38:19;20.63;;;9.27;;
85701;SDS011;76139;50.888;3.882;2024-02-21T05:40:44;16.17;;;9.82;;
85701;SDS011;76139;50.888;3.882;2024-02-21T05:43:10;20.30;;;7.60;;
85701;SDS011;76139;50.888;3.882;2024-02-21T05:45:36;18.48;;;9.10;;
85701;SDS011;76139;50.888;3.882;2024-02-21T05:48:03;17.70;;;8.65;;
85701;SDS011;76139;50.888;3.882;2024-02-21T05:50:29;19.40;;;9.48;;
85701;SDS011;76139;50.888;3.882;2024-02-21T05:52:54;17.65;;;8.90;;
85701;SDS011;76139;50.888;3.882;2024-02-21T05:55:21;13.60;;;8.50;;
85701;SDS011;76139;50.888;3.882;2024-02-21T05:57:47;15.35;;;8.45;;
85701;SDS011;76139;50.888;3.882;2024-02-21T06:00:13;17.50;;;8.05;;
85701;SDS011;76139;50.888;3.882;2024-02-21T06:02:39;17.13;;;9.95;;
85701;SDS011;76139;50.888;3.882;2024-02-21T06:05:05;23.13;;;9.55;;
85701;SDS011;76139;50.888;3.882;2024-02-21T06:07:33;15.93;;;8.82;;
85701;SDS011;76139;50.888;3.882;2024-02-21T06:10:02;16.92;;;8.75;;
85701;SDS011;76139;50.888;3.882;2024-02-21T06:12:28;16.95;;;8.40;;
85701;SDS011;76139;50.888;3.882;2024-02-21T06:14:53;12.73;;;7.68;;
85701;SDS011;76139;50.888;3.882;2024-02-21T06:17:19;13.70;;;7.53;;
85701;SDS011;76139;50.888;3.882;2024-02-21T06:19:45;16.60;;;9.25;;
85701;SDS011;76139;50.888;3.882;2024-02-21T06:22:11;18.27;;;7.38;;
85701;SDS011;76139;50.888;3.882;2024-02-21T06:24:37;17.95;;;9.18;;
85701;SDS011;76139;50.888;3.882;2024-02-21T06:27:03;15.88;;;8.35;;
85701;SDS011;76139;50.888;3.882;2024-02-21T06:29:31;21.30;;;10.10;;
85701;SDS011;76139;50.888;3.882;2024-02-21T06:31:57;18.15;;;9.93;;
85701;SDS011;76139;50.888;3.882;2024-02-21T06:34:23;15.55;;;9.02;;
85701;SDS011;76139;50.888;3.882;2024-02-21T06:36:49;16.42;;;10.05;;
85701;SDS011;76139;50.888;3.882;2024-02-21T06:39:15;17.95;;;9.98;;
85701;SDS011;76139;50.888;3.882;2024-02-21T06:41:41;17.30;;;9.82;;
85701;SDS011;76139;50.888;3.882;2024-02-21T06:44:07;19.02;;;10.50;;
85701;SDS011;76139;50.888;3.882;2024-02-21T06:46:33;15.00;;;8.65;;
85701;SDS011;76139;50.888;3.882;2024-02-21T06:49:02;19.38;;;9.02;;
85701;SDS011;76139;50.888;3.882;2024-02-21T06:51:29;21.10;;;10.50;;
85701;SDS011;76139;50.888;3.882;2024-02-21T06:53:55;19.42;;;9.90;;
85701;SDS011;76139;50.888;3.882;2024-02-21T06:56:22;16.77;;;8.15;;
85701;SDS011;76139;50.888;3.882;2024-02-21T06:58:53;17.83;;;9.52;;
85701;SDS011;76139;50.888;3.882;2024-02-21T07:01:26;18.80;;;10.18;;
85701;SDS011;76139;50.888;3.882;2024-02-21T07:03:51;11.85;;;7.85;;
85701;SDS011;76139;50.888;3.882;2024-02-21T07:06:17;20.77;;;10.15;;
85701;SDS011;76139;50.888;3.882;2024-02-21T07:08:43;12.55;;;8.15;;
85701;SDS011;76139;50.888;3.882;2024-02-21T07:11:08;17.08;;;9.85;;
85701;SDS011;76139;50.888;3.882;2024-02-21T07:13:34;16.63;;;9.10;;
85701;SDS011;76139;50.888;3.882;2024-02-21T07:16:00;16.40;;;9.55;;
85701;SDS011;76139;50.888;3.882;2024-02-21T07:18:25;18.50;;;11.10;;
85701;SDS011;76139;50.888;3.882;2024-02-21T07:20:51;21.88;;;12.23;;
85701;SDS011;76139;50.888;3.882;2024-02-21T07:23:18;16.63;;;10.68;;
85701;SDS011;76139;50.888;3.882;2024-02-21T07:25:44;19.30;;;10.32;;
85701;SDS011;76139;50.888;3.882;2024-02-21T07:28:09;19.20;;;10.77;;
85701;SDS011;76139;50.888;3.882;2024-02-21T07:30:35;17.88;;;11.10;;
85701;SDS011;76139;50.888;3.882;2024-02-21T07:33:01;18.85;;;10.77;;
85701;SDS011;76139;50.888;3.882;2024-02-21T07:35:27;22.20;;;11.73;;
85701;SDS011;76139;50.888;3.882;2024-02-21T07:37:53;15.48;;;9.55;;
85701;SDS011;76139;50.888;3.882;2024-02-21T07:40:18;17.58;;;10.32;;
85701;SDS011;76139;50.888;3.882;2024-02-21T07:42:44;20.75;;;12.55;;
85701;SDS011;76139;50.888;3.882;2024-02-21T07:45:10;18.42;;;9.00;;
85701;SDS011;76139;50.888;3.882;2024-02-21T07:47:36;17.90;;;11.07;;
85701;SDS011;76139;50.888;3.882;2024-02-21T07:50:05;18.88;;;10.10;;
85701;SDS011;76139;50.888;3.882;2024-02-21T07:52:32;16.15;;;10.63;;
85701;SDS011;76139;50.888;3.882;2024-02-21T07:54:57;20.10;;;10.40;;
85701;SDS011;76139;50.888;3.882;2024-02-21T07:57:24;21.15;;;11.07;;
85701;SDS011;76139;50.888;3.882;2024-02-21T07:59:50;24.50;;;10.80;;
85701;SDS011;76139;50.888;3.882;2024-02-21T08:02:15;16.77;;;9.65;;
85701;SDS011;76139;50.888;3.882;2024-02-21T08:04:41;13.63;;;7.35;;
85701;SDS011;76139;50.888;3.882;2024-02-21T08:07:07;20.15;;;9.57;;
85701;SDS011;76139;50.888;3.882;2024-02-21T08:09:34;14.52;;;7.40;;
85701;SDS011;76139;50.888;3.882;2024-02-21T08:12:00;16.65;;;9.23;;
85701;SDS011;76139;50.888;3.882;2024-02-21T08:14:26;13.35;;;8.50;;
85701;SDS011;76139;50.888;3.882;2024-02-21T08:16:51;13.80;;;8.10;;
85701;SDS011;76139;50.888;3.882;2024-02-21T08:19:20;16.75;;;9.70;;
85701;SDS011;76139;50.888;3.882;2024-02-21T08:21:47;14.55;;;9.63;;
85701;SDS011;76139;50.888;3.882;2024-02-21T08:24:13;14.55;;;7.60;;
85701;SDS011;76139;50.888;3.882;2024-02-21T08:26:43;14.43;;;7.75;;
85701;SDS011;76139;50.888;3.882;2024-02-21T08:29:12;12.07;;;6.22;;
85701;SDS011;76139;50.888;3.882;2024-02-21T08:31:38;16.73;;;8.20;;
85701;SDS011;76139;50.888;3.882;2024-02-21T08:34:03;10.77;;;6.35;;
85701;SDS011;76139;50.888;3.882;2024-02-21T08:36:33;15.25;;;7.32;;
85701;SDS011;76139;50.888;3.882;2024-02-21T08:39:00;10.77;;;6.40;;
85701;SDS011;76139;50.888;3.882;2024-02-21T08:41:26;10.45;;;6.13;;
85701;SDS011;76139;50.888;3.882;2024-02-21T08:43:52;13.57;;;6.20;;
85701;SDS011;76139;50.888;3.882;2024-02-21T08:46:22;9.35;;;5.82;;
85701;SDS011;76139;50.888;3.882;2024-02-21T08:48:51;10.50;;;6.25;;
85701;SDS011;76139;50.888;3.882;2024-02-21T08:51:17;12.75;;;5.32;;
85701;SDS011;76139;50.888;3.882;2024-02-21T08:53:43;16.20;;;7.60;;
85701;SDS011;76139;50.888;3.882;2024-02-21T08:56:10;14.50;;;6.38;;
85701;SDS011;76139;50.888;3.882;2024-02-21T08:58:36;12.05;;;6.57;;
85701;SDS011;76139;50.888;3.882;2024-02-21T09:01:05;10.30;;;5.97;;
85701;SDS011;76139;50.888;3.882;2024-02-21T09:03:35;12.10;;;6.63;;
85701;SDS011;76139;50.888;3.882;2024-02-21T09:06:02;17.05;;;7.93;;
85701;SDS011;76139;50.888;3.882;2024-02-21T09:08:28;11.90;;;5.80;;
85701;SDS011;76139;50.888;3.882;2024-02-21T09:10:54;15.23;;;6.82;;
85701;SDS011;76139;50.888;3.882;2024-02-21T09:13:20;10.77;;;5.97;;
85701;SDS011;76139;50.888;3.882;2024-02-21T09:15:46;14.43;;;5.25;;
85701;SDS011;76139;50.888;3.882;2024-02-21T09:18:13;9.27;;;4.72;;
85701;SDS011;76139;50.888;3.882;2024-02-21T09:20:38;12.75;;;4.88;;
85701;SDS011;76139;50.888;3.882;2024-02-21T09:23:04;11.15;;;5.63;;
85701;SDS011;76139;50.888;3.882;2024-02-21T09:25:29;7.97;;;4.63;;
85701;SDS011;76139;50.888;3.882;2024-02-21T09:27:56;11.65;;;5.60;;
85701;SDS011;76139;50.888;3.882;2024-02-21T09:30:23;10.65;;;4.70;;
85701;SDS011;76139;50.888;3.882;2024-02-21T09:32:49;9.30;;;3.75;;
85701;SDS011;76139;50.888;3.882;2024-02-21T09:35:15;8.10;;;4.07;;
85701;SDS011;76139;50.888;3.882;2024-02-21T09:37:40;12.43;;;5.35;;
85701;SDS011;76139;50.888;3.882;2024-02-21T09:40:06;9.13;;;4.53;;
85701;SDS011;76139;50.888;3.882;2024-02-21T09:42:39;11.43;;;5.53;;
85701;SDS011;76139;50.888;3.882;2024-02-21T09:45:14;13.40;;;5.18;;
85701;SDS011;76139;50.888;3.882;2024-02-21T09:50:43;10.10;;;4.60;;
85701;SDS011;76139;50.888;3.882;2024-02-21T09:53:11;10.75;;;4.82;;
85701;SDS011;76139;50.888;3.882;2024-02-21T09:55:39;9.70;;;4.75;;
85701;SDS011;76139;50.888;3.882;2024-02-21T09:58:06;10.30;;;4.93;;
85701;SDS011;76139;50.888;3.882;2024-02-21T10:00:33;8.80;;;4.22;;
85701;SDS011;76139;50.888;3.882;2024-02-21T10:03:02;8.68;;;4.28;;
85701;SDS011;76139;50.888;3.882;2024-02-21T10:05:33;10.27;;;4.38;;
85701;SDS011;76139;50.888;3.882;2024-02-21T10:08:00;11.45;;;5.03;;
85701;SDS011;76139;50.888;3.882;2024-02-21T10:10:26;9.70;;;5.88;;
85701;SDS011;76139;50.888;3.882;2024-02-21T10:12:53;10.55;;;4.68;;
85701;SDS011;76139;50.888;3.882;2024-02-21T10:15:25;10.10;;;4.00;;
85701;SDS011;76139;50.888;3.882;2024-02-21T10:18:00;6.90;;;4.20;;
85701;SDS011;76139;50.888;3.882;2024-02-21T10:20:28;10.10;;;4.72;;
85701;SDS011;76139;50.888;3.882;2024-02-21T10:23:04;7.93;;;4.32;;
85701;SDS011;76139;50.888;3.882;2024-02-21T10:25:34;8.38;;;4.72;;
85701;SDS011;76139;50.888;3.882;2024-02-21T10:28:03;15.80;;;4.85;;
85701;SDS011;76139;50.888;3.882;2024-02-21T10:30:29;8.90;;;4.20;;
85701;SDS011;76139;50.888;3.882;2024-02-21T10:32:55;11.05;;;4.22;;
85701;SDS011;76139;50.888;3.882;2024-02-21T10:37:54;12.43;;;4.40;;
85701;SDS011;76139;50.888;3.882;2024-02-21T10:40:30;10.07;;;4.63;;
85701;SDS011;76139;50.888;3.882;2024-02-21T10:42:56;6.60;;;3.45;;
85701;SDS011;76139;50.888;3.882;2024-02-21T10:45:30;11.07;;;4.78;;
85701;SDS011;76139;50.888;3.882;2024-02-21T10:48:01;7.80;;;3.95;;
85701;SDS011;76139;50.888;3.882;2024-02-21T10:51:03;13.18;;;5.47;;
85701;SDS011;76139;50.888;3.882;2024-02-21T10:58:53;12.38;;;5.13;;
85701;SDS011;76139;50.888;3.882;2024-02-21T11:01:20;7.75;;;4.43;;
85701;SDS011;76139;50.888;3.882;2024-02-21T11:03:46;10.63;;;4.45;;
85701;SDS011;76139;50.888;3.882;2024-02-21T11:06:14;9.55;;;4.40;;
85701;SDS011;76139;50.888;3.882;2024-02-21T11:08:41;16.13;;;5.43;;
85701;SDS011;76139;50.888;3.882;2024-02-21T11:11:07;9.18;;;5.05;;
85701;SDS011;76139;50.888;3.882;2024-02-21T11:13:36;8.65;;;4.38;;
85701;SDS011;76139;50.888;3.882;2024-02-21T11:16:09;16.02;;;4.60;;
85701;SDS011;76139;50.888;3.882;2024-02-21T11:18:37;6.78;;;3.53;;
85701;SDS011;76139;50.888;3.882;2024-02-21T11:21:03;11.38;;;4.85;;
85701;SDS011;76139;50.888;3.882;2024-02-21T11:23:32;9.20;;;4.25;;
85701;SDS011;76139;50.888;3.882;2024-02-21T11:26:07;12.85;;;4.20;;
85701;SDS011;76139;50.888;3.882;2024-02-21T11:28:34;11.30;;;4.90;;
85701;SDS011;76139;50.888;3.882;2024-02-21T11:31:08;12.90;;;5.20;;
85701;SDS011;76139;50.888;3.882;2024-02-21T11:33:34;8.80;;;4.30;;
85701;SDS011;76139;50.888;3.882;2024-02-21T11:36:00;10.43;;;5.00;;
85701;SDS011;76139;50.888;3.882;2024-02-21T11:38:29;7.88;;;4.38;;
85701;SDS011;76139;50.888;3.882;2024-02-21T11:40:55;7.63;;;4.57;;
85701;SDS011;76139;50.888;3.882;2024-02-21T11:43:21;9.00;;;4.30;;
85701;SDS011;76139;50.888;3.882;2024-02-21T11:45:46;9.80;;;4.63;;
85701;SDS011;76139;50.888;3.882;2024-02-21T11:48:12;11.35;;;6.00;;
85701;SDS011;76139;50.888;3.882;2024-02-21T11:50:39;6.97;;;4.35;;
85701;SDS011;76139;50.888;3.882;2024-02-21T11:53:04;9.43;;;4.43;;
85701;SDS011;76139;50.888;3.882;2024-02-21T11:55:30;9.05;;;5.22;;
85701;SDS011;76139;50.888;3.882;2024-02-21T11:57:56;11.90;;;5.80;;
85701;SDS011;76139;50.888;3.882;2024-02-21T12:00:22;7.88;;;4.28;;
85701;SDS011;76139;50.888;3.882;2024-02-21T12:02:51;9.65;;;4.95;;
85701;SDS011;76139;50.888;3.882;2024-02-21T12:05:18;8.02;;;4.63;;
85701;SDS011;76139;50.888;3.882;2024-02-21T12:07:45;10.93;;;4.72;;
85701;SDS011;76139;50.888;3.882;2024-02-21T12:10:10;6.63;;;3.65;;
85701;SDS011;76139;50.888;3.882;2024-02-21T12:12:37;10.93;;;4.60;;
85701;SDS011;76139;50.888;3.882;2024-02-21T12:15:04;9.13;;;4.43;;
85701;SDS011;76139;50.888;3.882;2024-02-21T12:17:34;7.90;;;4.43;;
85701;SDS011;76139;50.888;3.882;2024-02-21T12:20:05;8.18;;;4.13;;
85701;SDS011;76139;50.888;3.882;2024-02-21T12:22:36;7.28;;;3.92;;
85701;SDS011;76139;50.888;3.882;2024-02-21T12:25:24;6.28;;;3.83;;
85701;SDS011;76139;50.888;3.882;2024-02-21T12:27:51;6.90;;;3.35;;
85701;SDS011;76139;50.888;3.882;2024-02-21T12:30:17;10.82;;;4.47;;
85701;SDS011;76139;50.888;3.882;2024-02-21T12:32:42;6.60;;;4.30;;
85701;SDS011;76139;50.888;3.882;2024-02-21T12:35:08;6.53;;;3.78;;
85701;SDS011;76139;50.888;3.882;2024-02-21T12:37:34;9.40;;;3.97;;
85701;SDS011;76139;50.888;3.882;2024-02-21T12:40:00;8.13;;;4.18;;
85701;SDS011;76139;50.888;3.882;2024-02-21T12:42:26;7.28;;;3.40;;
85701;SDS011;76139;50.888;3.882;2024-02-21T12:44:53;8.75;;;5.50;;
85701;SDS011;76139;50.888;3.882;2024-02-21T12:47:19;9.77;;;4.50;;
85701;SDS011;76139;50.888;3.882;2024-02-21T12:49:48;11.32;;;5.18;;
85701;SDS011;76139;50.888;3.882;2024-02-21T12:52:14;5.38;;;3.25;;
85701;SDS011;76139;50.888;3.882;2024-02-21T12:54:40;8.40;;;3.97;;
85701;SDS011;76139;50.888;3.882;2024-02-21T12:57:05;9.85;;;4.70;;
85701;SDS011;76139;50.888;3.882;2024-02-21T12:59:31;7.57;;;3.72;;
85701;SDS011;76139;50.888;3.882;2024-02-21T13:01:56;8.30;;;4.43;;
85701;SDS011;76139;50.888;3.882;2024-02-21T13:04:22;9.70;;;4.07;;
85701;SDS011;76139;50.888;3.882;2024-02-21T13:06:48;8.45;;;4.25;;
85701;SDS011;76139;50.888;3.882;2024-02-21T13:09:14;8.13;;;4.28;;
85701;SDS011;76139;50.888;3.882;2024-02-21T13:11:40;8.45;;;4.90;;
85701;SDS011;76139;50.888;3.882;2024-02-21T13:14:06;7.90;;;5.10;;
85701;SDS011;76139;50.888;3.882;2024-02-21T13:16:32;9.98;;;4.72;;
85701;SDS011;76139;50.888;3.882;2024-02-21T13:19:04;7.57;;;4.32;;
85701;SDS011;76139;50.888;3.882;2024-02-21T13:21:31;12.43;;;5.35;;
85701;SDS011;76139;50.888;3.882;2024-02-21T13:23:57;8.05;;;4.85;;
85701;SDS011;76139;50.888;3.882;2024-02-21T13:26:22;13.13;;;5.35;;
85701;SDS011;76139;50.888;3.882;2024-02-21T13:28:48;9.00;;;4.85;;
85701;SDS011;76139;50.888;3.882;2024-02-21T13:31:14;8.50;;;4.88;;
85701;SDS011;76139;50.888;3.882;2024-02-21T13:33:41;9.45;;;5.35;;
85701;SDS011;76139;50.888;3.882;2024-02-21T13:36:09;11.98;;;5.32;;
85701;SDS011;76139;50.888;3.882;2024-02-21T13:38:35;10.63;;;5.70;;
85701;SDS011;76139;50.888;3.882;2024-02-21T13:41:01;15.20;;;6.35;;
85701;SDS011;76139;50.888;3.882;2024-02-21T13:43:27;7.80;;;4.18;;
85701;SDS011;76139;50.888;3.882;2024-02-21T13:45:59;7.78;;;4.65;;
85701;SDS011;76139;50.888;3.882;2024-02-21T13:48:30;9.75;;;5.57;;
85701;SDS011;76139;50.888;3.882;2024-02-21T13:50:56;10.43;;;5.50;;
85701;SDS011;76139;50.888;3.882;2024-02-21T13:53:22;11.15;;;4.43;;
85701;SDS011;76139;50.888;3.882;2024-02-21T13:55:48;12.88;;;6.50;;
85701;SDS011;76139;50.888;3.882;2024-02-21T13:58:15;11.70;;;5.72;;
85701;SDS011;76139;50.888;3.882;2024-02-21T14:00:41;9.77;;;5.22;;
85701;SDS011;76139;50.888;3.882;2024-02-21T14:03:06;10.38;;;5.65;;
85701;SDS011;76139;50.888;3.882;2024-02-21T14:05:32;12.20;;;6.70;;
85701;SDS011;76139;50.888;3.882;2024-02-21T14:07:57;14.38;;;7.53;;
85701;SDS011;76139;50.888;3.882;2024-02-21T14:10:23;10.27;;;5.47;;
85701;SDS011;76139;50.888;3.882;2024-02-21T14:12:49;13.57;;;7.45;;
85701;SDS011;76139;50.888;3.882;2024-02-21T14:15:15;10.32;;;5.30;;
85701;SDS011;76139;50.888;3.882;2024-02-21T14:17:41;11.60;;;5.40;;
85701;SDS011;76139;50.888;3.882;2024-02-21T14:20:07;9.98;;;5.97;;
85701;SDS011;76139;50.888;3.882;2024-02-21T14:22:33;11.30;;;6.25;;
85701;SDS011;76139;50.888;3.882;2024-02-21T14:24:59;10.98;;;5.60;;
85701;SDS011;76139;50.888;3.882;2024-02-21T14:27:26;9.43;;;5.95;;
85701;SDS011;76139;50.888;3.882;2024-02-21T14:29:51;9.30;;;5.40;;
85701;SDS011;76139;50.888;3.882;2024-02-21T14:32:18;12.27;;;7.97;;
85701;SDS011;76139;50.888;3.882;2024-02-21T14:34:45;9.50;;;5.90;;
85701;SDS011;76139;50.888;3.882;2024-02-21T14:37:11;10.35;;;6.15;;
85701;SDS011;76139;50.888;3.882;2024-02-21T14:39:37;11.23;;;6.43;;
85701;SDS011;76139;50.888;3.882;2024-02-21T14:42:03;12.50;;;7.13;;
85701;SDS011;76139;50.888;3.882;2024-02-21T14:44:29;14.27;;;7.30;;